sensor_id;sensor_type;location;lat;lon;timestamp;pressure;altitude;pressure_sealevel;temperature
67966;BMP280;54749;47.850;9.002;2023-04-08T00:01:18;96106.06;;;6.81
67966;BMP280;54749;47.850;9.002;2023-04-08T00:03:45;96106.16;;;6.80
67966;BMP280;54749;47.850;9.002;2023-04-08T00:06:12;96102.84;;;6.79
67966;BMP280;54749;47.850;9.002;2023-04-08T00:08:40;96098.59;;;6.80
67966;BMP280;54749;47.850;9.002;2023-04-08T00:11:07;96111.28;;;6.78
67966;BMP280;54749;47.850;9.002;2023-04-08T00:13:34;96112.16;;;6.77
67966;BMP280;54749;47.850;9.002;2023-04-08T00:16:01;96093.88;;;6.75
67966;BMP280;54749;47.850;9.002;2023-04-08T00:18:29;96102.38;;;6.73
67966;BMP280;54749;47.850;9.002;2023-04-08T00:20:56;96115.13;;;6.70
67966;BMP280;54749;47.850;9.002;2023-04-08T00:23:23;96105.97;;;6.69
67966;BMP280;54749;47.850;9.002;2023-04-08T00:25:50;96109.31;;;6.69
67966;BMP280;54749;47.850;9.002;2023-04-08T00:28:17;96098.63;;;6.66
67966;BMP280;54749;47.850;9.002;2023-04-08T00:30:44;96112.78;;;6.67
67966;BMP280;54749;47.850;9.002;2023-04-08T00:33:11;96100.22;;;6.67
67966;BMP280;54749;47.850;9.002;2023-04-08T00:35:39;96108.75;;;6.64
67966;BMP280;54749;47.850;9.002;2023-04-08T00:38:06;96107.88;;;6.65
67966;BMP280;54749;47.850;9.002;2023-04-08T00:40:33;96108.56;;;6.67
67966;BMP280;54749;47.850;9.002;2023-04-08T00:43:01;96106.06;;;6.67
67966;BMP280;54749;47.850;9.002;2023-04-08T00:45:28;96104.34;;;6.68
67966;BMP280;54749;47.850;9.002;2023-04-08T00:47:55;96097.72;;;6.67
67966;BMP280;54749;47.850;9.002;2023-04-08T00:50:22;96122.03;;;6.66
67966;BMP280;54749;47.850;9.002;2023-04-08T00:52:49;96101.41;;;6.62
67966;BMP280;54749;47.850;9.002;2023-04-08T00:55:16;96127.22;;;6.64
67966;BMP280;54749;47.850;9.002;2023-04-08T00:57:44;96112.97;;;6.64
67966;BMP280;54749;47.850;9.002;2023-04-08T01:00:13;96106.44;;;6.62
67966;BMP280;54749;47.850;9.002;2023-04-08T01:02:49;96113.97;;;6.62
67966;BMP280;54749;47.850;9.002;2023-04-08T01:05:29;96104.63;;;6.64
67966;BMP280;54749;47.850;9.002;2023-04-08T01:07:59;96114.59;;;6.65
67966;BMP280;54749;47.850;9.002;2023-04-08T01:10:29;96102.72;;;6.67
67966;BMP280;54749;47.850;9.002;2023-04-08T01:13:03;96093.50;;;6.67
67966;BMP280;54749;47.850;9.002;2023-04-08T01:15:34;96105.34;;;6.65
67966;BMP280;54749;47.850;9.002;2023-04-08T01:18:06;96103.72;;;6.64
67966;BMP280;54749;47.850;9.002;2023-04-08T01:20:33;96108.03;;;6.63
67966;BMP280;54749;47.850;9.002;2023-04-08T01:23:27;96109.91;;;6.59
67966;BMP280;54749;47.850;9.002;2023-04-08T01:25:56;96108.56;;;6.54
67966;BMP280;54749;47.850;9.002;2023-04-08T01:28:26;96103.63;;;6.52
67966;BMP280;54749;47.850;9.002;2023-04-08T01:30:55;96091.97;;;6.51
67966;BMP280;54749;47.850;9.002;2023-04-08T01:33:27;96101.41;;;6.48
67966;BMP280;54749;47.850;9.002;2023-04-08T01:35:55;96095.63;;;6.46
67966;BMP280;54749;47.850;9.002;2023-04-08T01:38:24;96100.13;;;6.41
67966;BMP280;54749;47.850;9.002;2023-04-08T01:40:53;96096.91;;;6.39
67966;BMP280;54749;47.850;9.002;2023-04-08T01:43:22;96112.47;;;6.30
67966;BMP280;54749;47.850;9.002;2023-04-08T01:45:51;96102.97;;;6.22
67966;BMP280;54749;47.850;9.002;2023-04-08T01:48:21;96108.16;;;6.19
67966;BMP280;54749;47.850;9.002;2023-04-08T01:50:48;96107.25;;;6.20
67966;BMP280;54749;47.850;9.002;2023-04-08T01:53:17;96106.34;;;6.21
67966;BMP280;54749;47.850;9.002;2023-04-08T01:55:44;96103.16;;;6.19
67966;BMP280;54749;47.850;9.002;2023-04-08T01:58:19;96101.59;;;6.16
67966;BMP280;54749;47.850;9.002;2023-04-08T02:00:47;96099.09;;;6.16
67966;BMP280;54749;47.850;9.002;2023-04-08T02:03:17;96109.31;;;6.13
67966;BMP280;54749;47.850;9.002;2023-04-08T02:05:46;96110.25;;;6.11
67966;BMP280;54749;47.850;9.002;2023-04-08T02:08:13;96104.63;;;6.08
67966;BMP280;54749;47.850;9.002;2023-04-08T02:10:40;96097.16;;;6.06
67966;BMP280;54749;47.850;9.002;2023-04-08T02:13:08;96112.22;;;6.06
67966;BMP280;54749;47.850;9.002;2023-04-08T02:15:37;96116.34;;;6.07
67966;BMP280;54749;47.850;9.002;2023-04-08T02:18:08;96120.81;;;6.02
67966;BMP280;54749;47.850;9.002;2023-04-08T02:20:47;96109.97;;;6.02
67966;BMP280;54749;47.850;9.002;2023-04-08T02:23:21;96119.03;;;6.04
67966;BMP280;54749;47.850;9.002;2023-04-08T02:25:52;96112.22;;;6.06
67966;BMP280;54749;47.850;9.002;2023-04-08T02:28:26;96118.78;;;6.09
67966;BMP280;54749;47.850;9.002;2023-04-08T02:30:56;96108.56;;;6.12
67966;BMP280;54749;47.850;9.002;2023-04-08T02:33:24;96113.44;;;6.14
67966;BMP280;54749;47.850;9.002;2023-04-08T02:35:53;96123.47;;;6.14
67966;BMP280;54749;47.850;9.002;2023-04-08T02:38:22;96109.31;;;6.13
67966;BMP280;54749;47.850;9.002;2023-04-08T02:40:50;96116.72;;;6.15
67966;BMP280;54749;47.850;9.002;2023-04-08T02:43:17;96111.81;;;6.13
67966;BMP280;54749;47.850;9.002;2023-04-08T02:45:44;96111.63;;;6.16
67966;BMP280;54749;47.850;9.002;2023-04-08T02:48:12;96126.06;;;6.13
67966;BMP280;54749;47.850;9.002;2023-04-08T02:50:39;96116.84;;;6.13
67966;BMP280;54749;47.850;9.002;2023-04-08T02:53:08;96118.84;;;6.07
67966;BMP280;54749;47.850;9.002;2023-04-08T02:55:36;96124.75;;;6.06
67966;BMP280;54749;47.850;9.002;2023-04-08T02:58:03;96124.69;;;6.08
67966;BMP280;54749;47.850;9.002;2023-04-08T03:00:31;96118.16;;;6.05
67966;BMP280;54749;47.850;9.002;2023-04-08T03:02:58;96138.53;;;5.99
67966;BMP280;54749;47.850;9.002;2023-04-08T03:05:26;96118.56;;;5.98
67966;BMP280;54749;47.850;9.002;2023-04-08T03:07:53;96110.97;;;5.99
67966;BMP280;54749;47.850;9.002;2023-04-08T03:10:20;96135.16;;;6.00
67966;BMP280;54749;47.850;9.002;2023-04-08T03:12:47;96126.56;;;6.04
67966;BMP280;54749;47.850;9.002;2023-04-08T03:15:14;96120.66;;;6.05
67966;BMP280;54749;47.850;9.002;2023-04-08T03:17:41;96114.66;;;6.08
67966;BMP280;54749;47.850;9.002;2023-04-08T03:20:09;96125.31;;;6.11
67966;BMP280;54749;47.850;9.002;2023-04-08T03:22:36;96116.91;;;6.12
67966;BMP280;54749;47.850;9.002;2023-04-08T03:25:04;96130.19;;;6.14
67966;BMP280;54749;47.850;9.002;2023-04-08T03:27:31;96125.97;;;6.14
67966;BMP280;54749;47.850;9.002;2023-04-08T03:29:58;96123.28;;;6.17
67966;BMP280;54749;47.850;9.002;2023-04-08T03:32:25;96124.09;;;6.18
67966;BMP280;54749;47.850;9.002;2023-04-08T03:34:52;96125.78;;;6.17
67966;BMP280;54749;47.850;9.002;2023-04-08T03:37:20;96121.59;;;6.18
67966;BMP280;54749;47.850;9.002;2023-04-08T03:39:47;96123.22;;;6.19
67966;BMP280;54749;47.850;9.002;2023-04-08T03:42:14;96125.63;;;6.20
67966;BMP280;54749;47.850;9.002;2023-04-08T03:44:41;96119.78;;;6.20
67966;BMP280;54749;47.850;9.002;2023-04-08T03:47:08;96122.22;;;6.21
67966;BMP280;54749;47.850;9.002;2023-04-08T03:49:35;96126.75;;;6.15
67966;BMP280;54749;47.850;9.002;2023-04-08T03:52:02;96120.66;;;6.05
67966;BMP280;54749;47.850;9.002;2023-04-08T03:54:29;96129.06;;;6.04
67966;BMP280;54749;47.850;9.002;2023-04-08T03:56:57;96121.53;;;6.04
67966;BMP280;54749;47.850;9.002;2023-04-08T03:59:23;96139.28;;;6.01
67966;BMP280;54749;47.850;9.002;2023-04-08T04:01:51;96121.72;;;6.01
67966;BMP280;54749;47.850;9.002;2023-04-08T04:04:19;96132.66;;;6.00
67966;BMP280;54749;47.850;9.002;2023-04-08T04:06:47;96140.25;;;5.99
67966;BMP280;54749;47.850;9.002;2023-04-08T04:09:17;96149.66;;;5.95
67966;BMP280;54749;47.850;9.002;2023-04-08T04:11:44;96128.94;;;5.92
67966;BMP280;54749;47.850;9.002;2023-04-08T04:14:11;96129.75;;;5.93
67966;BMP280;54749;47.850;9.002;2023-04-08T04:16:38;96121.50;;;5.91
67966;BMP280;54749;47.850;9.002;2023-04-08T04:19:05;96124.06;;;5.89
67966;BMP280;54749;47.850;9.002;2023-04-08T04:21:33;96130.16;;;5.85
67966;BMP280;54749;47.850;9.002;2023-04-08T04:24:00;96126.69;;;5.73
67966;BMP280;54749;47.850;9.002;2023-04-08T04:26:27;96133.59;;;5.69
67966;BMP280;54749;47.850;9.002;2023-04-08T04:28:54;96136.09;;;5.69
67966;BMP280;54749;47.850;9.002;2023-04-08T04:31:23;96150.56;;;5.64
67966;BMP280;54749;47.850;9.002;2023-04-08T04:33:53;96143.91;;;5.63
67966;BMP280;54749;47.850;9.002;2023-04-08T04:36:21;96138.03;;;5.64
67966;BMP280;54749;47.850;9.002;2023-04-08T04:38:48;96139.66;;;5.65
67966;BMP280;54749;47.850;9.002;2023-04-08T04:41:16;96148.19;;;5.61
67966;BMP280;54749;47.850;9.002;2023-04-08T04:43:44;96146.56;;;5.60
67966;BMP280;54749;47.850;9.002;2023-04-08T04:46:11;96140.75;;;5.60
67966;BMP280;54749;47.850;9.002;2023-04-08T04:48:38;96149.91;;;5.61
67966;BMP280;54749;47.850;9.002;2023-04-08T04:51:05;96165.81;;;5.60
67966;BMP280;54749;47.850;9.002;2023-04-08T04:53:33;96168.31;;;5.60
67966;BMP280;54749;47.850;9.002;2023-04-08T04:56:00;96170.91;;;5.58
67966;BMP280;54749;47.850;9.002;2023-04-08T04:58:28;96162.91;;;5.52
67966;BMP280;54749;47.850;9.002;2023-04-08T05:00:56;96160.59;;;5.49
67966;BMP280;54749;47.850;9.002;2023-04-08T05:03:23;96165.34;;;5.54
67966;BMP280;54749;47.850;9.002;2023-04-08T05:05:51;96171.81;;;5.58
67966;BMP280;54749;47.850;9.002;2023-04-08T05:08:20;96174.91;;;5.62
67966;BMP280;54749;47.850;9.002;2023-04-08T05:10:47;96146.28;;;5.66
67966;BMP280;54749;47.850;9.002;2023-04-08T05:13:17;96155.25;;;5.70
67966;BMP280;54749;47.850;9.002;2023-04-08T05:15:44;96148.19;;;5.77
67966;BMP280;54749;47.850;9.002;2023-04-08T05:18:12;96153.78;;;5.81
67966;BMP280;54749;47.850;9.002;2023-04-08T05:20:39;96156.78;;;5.88
67966;BMP280;54749;47.850;9.002;2023-04-08T05:23:06;96164.06;;;5.92
67966;BMP280;54749;47.850;9.002;2023-04-08T05:25:34;96167.75;;;6.00
67966;BMP280;54749;47.850;9.002;2023-04-08T05:28:02;96164.00;;;6.07
67966;BMP280;54749;47.850;9.002;2023-04-08T05:30:30;96161.88;;;6.15
67966;BMP280;54749;47.850;9.002;2023-04-08T05:32:57;96168.19;;;6.22
67966;BMP280;54749;47.850;9.002;2023-04-08T05:35:27;96181.94;;;6.30
67966;BMP280;54749;47.850;9.002;2023-04-08T05:37:54;96167.31;;;6.36
67966;BMP280;54749;47.850;9.002;2023-04-08T05:40:22;96177.09;;;6.41
67966;BMP280;54749;47.850;9.002;2023-04-08T05:42:49;96168.44;;;6.46
67966;BMP280;54749;47.850;9.002;2023-04-08T05:45:16;96163.72;;;6.55
67966;BMP280;54749;47.850;9.002;2023-04-08T05:47:43;96176.28;;;6.69
67966;BMP280;54749;47.850;9.002;2023-04-08T05:50:11;96168.84;;;6.81
67966;BMP280;54749;47.850;9.002;2023-04-08T05:52:42;96170.50;;;6.96
67966;BMP280;54749;47.850;9.002;2023-04-08T05:55:11;96165.56;;;7.08
67966;BMP280;54749;47.850;9.002;2023-04-08T05:57:39;96166.72;;;7.16
67966;BMP280;54749;47.850;9.002;2023-04-08T06:00:09;96173.00;;;7.23
67966;BMP280;54749;47.850;9.002;2023-04-08T06:02:36;96179.56;;;7.39
67966;BMP280;54749;47.850;9.002;2023-04-08T06:05:05;96180.22;;;7.54
67966;BMP280;54749;47.850;9.002;2023-04-08T06:07:32;96163.06;;;7.74
67966;BMP280;54749;47.850;9.002;2023-04-08T06:10:00;96169.19;;;7.96
67966;BMP280;54749;47.850;9.002;2023-04-08T06:12:27;96166.34;;;8.14
67966;BMP280;54749;47.850;9.002;2023-04-08T06:14:55;96159.25;;;8.33
67966;BMP280;54749;47.850;9.002;2023-04-08T06:17:22;96168.03;;;8.40
67966;BMP280;54749;47.850;9.002;2023-04-08T06:19:49;96166.34;;;8.52
67966;BMP280;54749;47.850;9.002;2023-04-08T06:22:16;96170.09;;;8.71
67966;BMP280;54749;47.850;9.002;2023-04-08T06:24:46;96166.78;;;8.95
67966;BMP280;54749;47.850;9.002;2023-04-08T06:27:14;96163.94;;;9.24
67966;BMP280;54749;47.850;9.002;2023-04-08T06:29:41;96166.25;;;9.39
67966;BMP280;54749;47.850;9.002;2023-04-08T06:32:09;96168.84;;;9.49
67966;BMP280;54749;47.850;9.002;2023-04-08T06:34:36;96128.28;;;9.52
67966;BMP280;54749;47.850;9.002;2023-04-08T06:37:04;96134.84;;;9.55
67966;BMP280;54749;47.850;9.002;2023-04-08T06:39:32;96118.41;;;9.49
67966;BMP280;54749;47.850;9.002;2023-04-08T06:41:59;96166.75;;;9.44
67966;BMP280;54749;47.850;9.002;2023-04-08T06:44:46;96164.44;;;9.41
67966;BMP280;54749;47.850;9.002;2023-04-08T06:47:13;96172.72;;;9.30
67966;BMP280;54749;47.850;9.002;2023-04-08T06:49:40;96180.19;;;9.20
67966;BMP280;54749;47.850;9.002;2023-04-08T06:52:08;96172.53;;;9.09
67966;BMP280;54749;47.850;9.002;2023-04-08T06:54:35;96178.59;;;9.07
67966;BMP280;54749;47.850;9.002;2023-04-08T06:57:02;96185.34;;;9.06
67966;BMP280;54749;47.850;9.002;2023-04-08T06:59:30;96204.19;;;9.01
67966;BMP280;54749;47.850;9.002;2023-04-08T07:01:57;96203.09;;;9.05
67966;BMP280;54749;47.850;9.002;2023-04-08T07:04:24;96188.28;;;9.12
67966;BMP280;54749;47.850;9.002;2023-04-08T07:06:52;96193.31;;;9.25
67966;BMP280;54749;47.850;9.002;2023-04-08T07:09:19;96190.47;;;9.29
67966;BMP280;54749;47.850;9.002;2023-04-08T07:11:47;96187.84;;;9.43
67966;BMP280;54749;47.850;9.002;2023-04-08T07:14:14;96194.31;;;9.34
67966;BMP280;54749;47.850;9.002;2023-04-08T07:16:41;96191.66;;;9.36
67966;BMP280;54749;47.850;9.002;2023-04-08T07:19:08;96211.88;;;9.48
67966;BMP280;54749;47.850;9.002;2023-04-08T07:21:35;96199.84;;;9.51
67966;BMP280;54749;47.850;9.002;2023-04-08T07:24:02;96202.72;;;9.70
67966;BMP280;54749;47.850;9.002;2023-04-08T07:26:29;96207.97;;;9.91
67966;BMP280;54749;47.850;9.002;2023-04-08T07:28:57;96194.25;;;10.06
67966;BMP280;54749;47.850;9.002;2023-04-08T07:31:24;96198.44;;;10.17
67966;BMP280;54749;47.850;9.002;2023-04-08T07:33:51;96186.78;;;10.27
67966;BMP280;54749;47.850;9.002;2023-04-08T07:36:18;96204.22;;;10.42
67966;BMP280;54749;47.850;9.002;2023-04-08T07:38:47;96197.84;;;10.60
67966;BMP280;54749;47.850;9.002;2023-04-08T07:41:14;96202.91;;;10.93
67966;BMP280;54749;47.850;9.002;2023-04-08T07:43:41;96204.56;;;11.26
67966;BMP280;54749;47.850;9.002;2023-04-08T07:46:08;96204.97;;;11.54
67966;BMP280;54749;47.850;9.002;2023-04-08T07:48:36;96201.84;;;11.61
67966;BMP280;54749;47.850;9.002;2023-04-08T07:51:08;96208.19;;;11.67
67966;BMP280;54749;47.850;9.002;2023-04-08T07:53:38;96202.41;;;11.65
67966;BMP280;54749;47.850;9.002;2023-04-08T07:56:13;96210.69;;;11.56
67966;BMP280;54749;47.850;9.002;2023-04-08T07:58:41;96206.47;;;11.46
67966;BMP280;54749;47.850;9.002;2023-04-08T08:01:21;96209.66;;;11.37
67966;BMP280;54749;47.850;9.002;2023-04-08T08:03:50;96199.63;;;11.25
67966;BMP280;54749;47.850;9.002;2023-04-08T08:06:19;96225.84;;;11.24
67966;BMP280;54749;47.850;9.002;2023-04-08T08:08:47;96217.13;;;11.28
67966;BMP280;54749;47.850;9.002;2023-04-08T08:11:13;96219.72;;;11.26
67966;BMP280;54749;47.850;9.002;2023-04-08T08:13:41;96206.03;;;11.18
67966;BMP280;54749;47.850;9.002;2023-04-08T08:16:08;96225.31;;;10.98
67966;BMP280;54749;47.850;9.002;2023-04-08T08:18:39;96211.31;;;10.71
67966;BMP280;54749;47.850;9.002;2023-04-08T08:21:07;96227.63;;;10.67
67966;BMP280;54749;47.850;9.002;2023-04-08T08:23:35;96222.34;;;10.70
67966;BMP280;54749;47.850;9.002;2023-04-08T08:26:04;96220.97;;;10.66
67966;BMP280;54749;47.850;9.002;2023-04-08T08:28:32;96228.72;;;10.52
67966;BMP280;54749;47.850;9.002;2023-04-08T08:30:59;96240.81;;;10.60
67966;BMP280;54749;47.850;9.002;2023-04-08T08:33:26;96238.31;;;10.70
67966;BMP280;54749;47.850;9.002;2023-04-08T08:35:53;96240.75;;;10.72
67966;BMP280;54749;47.850;9.002;2023-04-08T08:38:22;96237.47;;;10.82
67966;BMP280;54749;47.850;9.002;2023-04-08T08:40:56;96246.44;;;10.86
67966;BMP280;54749;47.850;9.002;2023-04-08T08:43:24;96244.91;;;10.73
67966;BMP280;54749;47.850;9.002;2023-04-08T08:45:52;96254.22;;;10.83
67966;BMP280;54749;47.850;9.002;2023-04-08T08:48:19;96247.78;;;10.56
67966;BMP280;54749;47.850;9.002;2023-04-08T08:50:46;96257.63;;;10.49
67966;BMP280;54749;47.850;9.002;2023-04-08T08:53:14;96278.81;;;10.13
67966;BMP280;54749;47.850;9.002;2023-04-08T08:55:41;96264.13;;;9.82
67966;BMP280;54749;47.850;9.002;2023-04-08T08:58:11;96273.00;;;9.51
67966;BMP280;54749;47.850;9.002;2023-04-08T09:00:40;96276.44;;;9.50
67966;BMP280;54749;47.850;9.002;2023-04-08T09:03:25;96272.00;;;9.42
67966;BMP280;54749;47.850;9.002;2023-04-08T09:06:01;96274.22;;;9.34
67966;BMP280;54749;47.850;9.002;2023-04-08T09:08:34;96273.19;;;9.36
67966;BMP280;54749;47.850;9.002;2023-04-08T09:11:15;96263.09;;;9.48
67966;BMP280;54749;47.850;9.002;2023-04-08T09:13:44;96264.00;;;9.72
67966;BMP280;54749;47.850;9.002;2023-04-08T09:16:16;96281.66;;;9.84
67966;BMP280;54749;47.850;9.002;2023-04-08T09:18:45;96270.53;;;9.98
67966;BMP280;54749;47.850;9.002;2023-04-08T09:21:21;96275.78;;;10.08
67966;BMP280;54749;47.850;9.002;2023-04-08T09:23:50;96272.50;;;10.18
67966;BMP280;54749;47.850;9.002;2023-04-08T09:26:20;96265.84;;;9.82
67966;BMP280;54749;47.850;9.002;2023-04-08T09:29:08;96266.59;;;10.07
67966;BMP280;54749;47.850;9.002;2023-04-08T09:31:55;96272.31;;;10.21
67966;BMP280;54749;47.850;9.002;2023-04-08T09:34:25;96268.19;;;10.43
67966;BMP280;54749;47.850;9.002;2023-04-08T09:36:53;96261.63;;;10.63
67966;BMP280;54749;47.850;9.002;2023-04-08T09:39:22;96267.44;;;10.76
67966;BMP280;54749;47.850;9.002;2023-04-08T09:41:50;96259.13;;;10.74
67966;BMP280;54749;47.850;9.002;2023-04-08T09:44:20;96257.56;;;10.84
67966;BMP280;54749;47.850;9.002;2023-04-08T09:47:10;96261.47;;;10.87
67966;BMP280;54749;47.850;9.002;2023-04-08T09:49:49;96255.03;;;10.84
67966;BMP280;54749;47.850;9.002;2023-04-08T09:52:23;96237.59;;;10.91
67966;BMP280;54749;47.850;9.002;2023-04-08T09:55:01;96257.97;;;11.01
67966;BMP280;54749;47.850;9.002;2023-04-08T09:57:39;96234.16;;;10.92
67966;BMP280;54749;47.850;9.002;2023-04-08T10:00:10;96259.06;;;11.20
67966;BMP280;54749;47.850;9.002;2023-04-08T10:02:52;96247.75;;;11.46
67966;BMP280;54749;47.850;9.002;2023-04-08T10:05:21;96239.56;;;11.43
67966;BMP280;54749;47.850;9.002;2023-04-08T10:07:50;96240.22;;;11.23
67966;BMP280;54749;47.850;9.002;2023-04-08T10:10:18;96259.25;;;11.06
67966;BMP280;54749;47.850;9.002;2023-04-08T10:12:45;96269.13;;;11.32
67966;BMP280;54749;47.850;9.002;2023-04-08T10:15:26;96255.44;;;11.34
67966;BMP280;54749;47.850;9.002;2023-04-08T10:23:04;96254.25;;;12.34
67966;BMP280;54749;47.850;9.002;2023-04-08T10:25:34;96248.31;;;12.66
67966;BMP280;54749;47.850;9.002;2023-04-08T10:30:53;96260.78;;;11.85
67966;BMP280;54749;47.850;9.002;2023-04-08T10:36:08;96270.34;;;11.81
67966;BMP280;54749;47.850;9.002;2023-04-08T10:38:36;96261.34;;;11.88
67966;BMP280;54749;47.850;9.002;2023-04-08T10:41:04;96255.69;;;12.06
67966;BMP280;54749;47.850;9.002;2023-04-08T10:43:35;96246.22;;;12.08
67966;BMP280;54749;47.850;9.002;2023-04-08T10:46:02;96241.88;;;12.62
67966;BMP280;54749;47.850;9.002;2023-04-08T10:48:30;96242.13;;;12.90
67966;BMP280;54749;47.850;9.002;2023-04-08T10:51:00;96236.53;;;13.55
67966;BMP280;54749;47.850;9.002;2023-04-08T10:53:29;96230.25;;;14.08
67966;BMP280;54749;47.850;9.002;2023-04-08T10:56:07;96224.31;;;13.99
67966;BMP280;54749;47.850;9.002;2023-04-08T10:58:35;96232.47;;;14.40
67966;BMP280;54749;47.850;9.002;2023-04-08T11:01:06;96232.06;;;14.45
67966;BMP280;54749;47.850;9.002;2023-04-08T11:03:34;96223.00;;;14.79
67966;BMP280;54749;47.850;9.002;2023-04-08T11:06:04;96203.47;;;15.61
67966;BMP280;54749;47.850;9.002;2023-04-08T11:08:32;96229.34;;;15.66
67966;BMP280;54749;47.850;9.002;2023-04-08T11:11:00;96214.41;;;15.26
67966;BMP280;54749;47.850;9.002;2023-04-08T11:13:32;96209.56;;;15.33
67966;BMP280;54749;47.850;9.002;2023-04-08T11:15:59;96209.88;;;15.65
67966;BMP280;54749;47.850;9.002;2023-04-08T11:18:26;96206.22;;;16.13
67966;BMP280;54749;47.850;9.002;2023-04-08T11:20:54;96213.16;;;15.49
67966;BMP280;54749;47.850;9.002;2023-04-08T11:23:24;96212.19;;;14.96
67966;BMP280;54749;47.850;9.002;2023-04-08T11:25:52;96229.38;;;13.69
67966;BMP280;54749;47.850;9.002;2023-04-08T11:28:20;96236.56;;;13.65
67966;BMP280;54749;47.850;9.002;2023-04-08T11:30:48;96205.41;;;13.33
67966;BMP280;54749;47.850;9.002;2023-04-08T11:33:15;96226.00;;;13.60
67966;BMP280;54749;47.850;9.002;2023-04-08T11:35:43;96243.25;;;13.36
67966;BMP280;54749;47.850;9.002;2023-04-08T11:38:10;96227.84;;;13.29
67966;BMP280;54749;47.850;9.002;2023-04-08T11:40:37;96226.16;;;13.18
67966;BMP280;54749;47.850;9.002;2023-04-08T11:43:12;96226.25;;;12.77
67966;BMP280;54749;47.850;9.002;2023-04-08T11:45:41;96227.50;;;12.82
67966;BMP280;54749;47.850;9.002;2023-04-08T11:50:36;96228.31;;;12.83
67966;BMP280;54749;47.850;9.002;2023-04-08T11:53:03;96208.34;;;12.89
67966;BMP280;54749;47.850;9.002;2023-04-08T11:55:31;96212.53;;;12.79
67966;BMP280;54749;47.850;9.002;2023-04-08T11:58:03;96219.25;;;12.70
67966;BMP280;54749;47.850;9.002;2023-04-08T12:00:31;96213.09;;;12.83
67966;BMP280;54749;47.850;9.002;2023-04-08T12:02:58;96227.38;;;12.84
67966;BMP280;54749;47.850;9.002;2023-04-08T12:05:26;96221.59;;;12.93
67966;BMP280;54749;47.850;9.002;2023-04-08T12:07:53;96232.63;;;12.72
67966;BMP280;54749;47.850;9.002;2023-04-08T12:10:21;96234.47;;;12.70
67966;BMP280;54749;47.850;9.002;2023-04-08T12:12:48;96225.63;;;12.64
67966;BMP280;54749;47.850;9.002;2023-04-08T12:15:15;96230.69;;;12.64
67966;BMP280;54749;47.850;9.002;2023-04-08T12:17:43;96232.56;;;12.62
67966;BMP280;54749;47.850;9.002;2023-04-08T12:20:11;96231.22;;;12.37
67966;BMP280;54749;47.850;9.002;2023-04-08T12:22:38;96238.78;;;11.96
67966;BMP280;54749;47.850;9.002;2023-04-08T12:25:06;96237.53;;;11.58
67966;BMP280;54749;47.850;9.002;2023-04-08T12:27:33;96249.56;;;10.89
67966;BMP280;54749;47.850;9.002;2023-04-08T12:30:01;96263.41;;;10.73
67966;BMP280;54749;47.850;9.002;2023-04-08T12:32:29;96250.69;;;10.85
67966;BMP280;54749;47.850;9.002;2023-04-08T12:34:56;96245.06;;;10.93
67966;BMP280;54749;47.850;9.002;2023-04-08T12:37:24;96252.03;;;10.79
67966;BMP280;54749;47.850;9.002;2023-04-08T12:39:51;96246.50;;;10.74
67966;BMP280;54749;47.850;9.002;2023-04-08T12:42:18;96246.03;;;10.69
67966;BMP280;54749;47.850;9.002;2023-04-08T12:44:45;96246.53;;;10.51
67966;BMP280;54749;47.850;9.002;2023-04-08T12:47:12;96253.41;;;10.49
67966;BMP280;54749;47.850;9.002;2023-04-08T12:49:39;96249.25;;;10.48
67966;BMP280;54749;47.850;9.002;2023-04-08T12:52:09;96248.66;;;10.22
67966;BMP280;54749;47.850;9.002;2023-04-08T12:54:36;96245.34;;;10.21
67966;BMP280;54749;47.850;9.002;2023-04-08T12:57:04;96264.72;;;10.21
67966;BMP280;54749;47.850;9.002;2023-04-08T12:59:31;96265.25;;;10.14
67966;BMP280;54749;47.850;9.002;2023-04-08T13:01:59;96263.84;;;10.10
67966;BMP280;54749;47.850;9.002;2023-04-08T13:04:26;96256.25;;;10.10
67966;BMP280;54749;47.850;9.002;2023-04-08T13:06:53;96272.41;;;10.19
67966;BMP280;54749;47.850;9.002;2023-04-08T13:09:21;96256.69;;;10.39
67966;BMP280;54749;47.850;9.002;2023-04-08T13:11:48;96248.94;;;10.52
67966;BMP280;54749;47.850;9.002;2023-04-08T13:14:16;96241.41;;;10.63
67966;BMP280;54749;47.850;9.002;2023-04-08T13:16:43;96235.00;;;10.70
67966;BMP280;54749;47.850;9.002;2023-04-08T13:19:10;96239.06;;;10.83
67966;BMP280;54749;47.850;9.002;2023-04-08T13:21:37;96239.69;;;10.97
67966;BMP280;54749;47.850;9.002;2023-04-08T13:24:05;96228.56;;;11.10
67966;BMP280;54749;47.850;9.002;2023-04-08T13:26:32;96244.56;;;11.21
67966;BMP280;54749;47.850;9.002;2023-04-08T13:28:59;96229.03;;;11.26
67966;BMP280;54749;47.850;9.002;2023-04-08T13:31:27;96236.81;;;11.35
67966;BMP280;54749;47.850;9.002;2023-04-08T13:33:54;96221.16;;;11.52
67966;BMP280;54749;47.850;9.002;2023-04-08T13:36:23;96226.25;;;11.62
67966;BMP280;54749;47.850;9.002;2023-04-08T13:38:51;96235.44;;;11.74
67966;BMP280;54749;47.850;9.002;2023-04-08T13:41:19;96225.44;;;11.94
67966;BMP280;54749;47.850;9.002;2023-04-08T13:43:51;96233.09;;;12.14
67966;BMP280;54749;47.850;9.002;2023-04-08T13:46:18;96218.66;;;12.36
67966;BMP280;54749;47.850;9.002;2023-04-08T13:48:45;96224.72;;;12.55
67966;BMP280;54749;47.850;9.002;2023-04-08T13:51:12;96219.25;;;12.70
67966;BMP280;54749;47.850;9.002;2023-04-08T13:53:39;96222.31;;;12.84
67966;BMP280;54749;47.850;9.002;2023-04-08T13:56:06;96224.09;;;12.73
67966;BMP280;54749;47.850;9.002;2023-04-08T13:58:34;96224.25;;;12.61
67966;BMP280;54749;47.850;9.002;2023-04-08T14:01:01;96227.44;;;12.32
67966;BMP280;54749;47.850;9.002;2023-04-08T14:03:28;96233.81;;;12.05
67966;BMP280;54749;47.850;9.002;2023-04-08T14:05:55;96224.13;;;12.10
67966;BMP280;54749;47.850;9.002;2023-04-08T14:08:26;96224.84;;;12.01
67966;BMP280;54749;47.850;9.002;2023-04-08T14:10:55;96224.88;;;11.80
67966;BMP280;54749;47.850;9.002;2023-04-08T14:13:23;96218.34;;;12.19
67966;BMP280;54749;47.850;9.002;2023-04-08T14:15:50;96210.69;;;12.40
67966;BMP280;54749;47.850;9.002;2023-04-08T14:18:19;96240.06;;;12.84
67966;BMP280;54749;47.850;9.002;2023-04-08T14:20:46;96232.84;;;12.99
67966;BMP280;54749;47.850;9.002;2023-04-08T14:23:13;96228.84;;;12.97
67966;BMP280;54749;47.850;9.002;2023-04-08T14:25:42;96232.91;;;13.09
67966;BMP280;54749;47.850;9.002;2023-04-08T14:28:09;96223.66;;;12.57
67966;BMP280;54749;47.850;9.002;2023-04-08T14:30:37;96227.06;;;12.78
67966;BMP280;54749;47.850;9.002;2023-04-08T14:33:04;96234.94;;;12.33
67966;BMP280;54749;47.850;9.002;2023-04-08T14:35:31;96224.22;;;12.71
67966;BMP280;54749;47.850;9.002;2023-04-08T14:37:59;96217.13;;;13.05